Portada
METAR-TAF:

METAR-TAF

Aeropuertos :

Aeropuerto de Logroño-Agoncillo

Logroño, España

latitud: 42-27N, longitud: 002-20W, altitud: 353 m

Observación

El informe se hizo hace 28 minutos, a las 04:00 UTC
Viento 5 kt del oeste
Temperatura 10°C
Humedad 93%
Presión 1014 hPa
Visibilidad 10 km o más
sin nubes por debajo de 1500 m y sin presencia de cumulonimbus.

METAR: LELO 160400Z 28005KT CAVOK 10/09 Q1014

Hora: 06:28 (04:28 UTC)

Pronóstico

El informe se hizo hace 2 horas y 28 minutos, a las 02:00 UTC
Pronóstico válido del 16 a las 03 UTC al 16 a las 12 UTC
Viento 5 kt con dirección variable
Visibilidad 10 km o más
Nubes dispersas a una altura de 5000 ft
Probabilidad 40% :
Temporalmente
del 16 a las 07 UTC al 16 a las 11 UTC
Viento 10 kt del oeste

TAF: LELO 160200Z 1603/1612 VRB05KT 9999 SCT050 PROB40 TEMPO 1607/1611 28010KT

Observaciones y pronósticos meteorológicos de más de 4000 aeropuertos (mensajes METAR y TAF).

Los puntos amarillos y rojos representan las estaciones disponibles.

Ponga el ratón en el punto deseado para ver el nombre de la estación.

Haga clic para ver las observaciones y los pronósticos meteorológicos.

Para cambiar el mapa : haga clic en los botones verdes con una cruz de color negro para hacer un zoom, en el botón verde con un guión para alejar o en las flechas verdes para mapas adyacentes.


METAR-TAF: